createdAt,value
2022-09-26T00:00:33.443Z,9.757418
2022-09-26T00:01:33.498Z,9.757436
2022-09-26T00:02:33.474Z,9.757366
2022-09-26T00:03:33.417Z,9.757276
2022-09-26T00:04:33.411Z,9.757461
2022-09-26T00:05:33.399Z,9.757435
2022-09-26T00:06:33.394Z,9.757750
2022-09-26T00:07:33.418Z,9.757900
2022-09-26T00:08:33.381Z,9.757576
2022-09-26T00:09:33.370Z,9.756991
2022-09-26T00:10:33.365Z,9.756892
2022-09-26T00:11:33.354Z,9.757277
2022-09-26T00:12:33.374Z,9.757666
2022-09-26T00:13:33.344Z,9.757599
2022-09-26T00:14:33.339Z,9.757540
2022-09-26T00:15:33.308Z,9.757463
2022-09-26T00:16:33.370Z,9.757587
2022-09-26T00:17:33.333Z,9.757540
2022-09-26T00:18:33.291Z,9.757559
2022-09-26T00:19:33.284Z,9.757685
2022-09-26T00:20:33.277Z,9.757653
2022-09-26T00:21:33.270Z,9.757601
2022-09-26T00:22:33.289Z,9.757507
2022-09-26T00:23:33.255Z,9.757340
2022-09-26T00:24:33.249Z,9.757245
2022-09-26T00:25:33.235Z,9.757329
2022-09-26T00:26:33.229Z,9.757405
2022-09-26T00:27:33.246Z,9.757440
2022-09-26T00:28:33.219Z,9.757569
2022-09-26T00:29:33.212Z,9.757380
2022-09-26T00:30:33.216Z,9.757298
2022-09-26T00:31:33.192Z,9.757310
2022-09-26T00:32:33.216Z,9.757398
2022-09-26T00:33:33.174Z,9.757583
2022-09-26T00:34:33.166Z,9.757644
2022-09-26T00:35:33.156Z,9.757535
2022-09-26T00:36:38.042Z,9.757668
2022-09-26T00:37:35.170Z,9.757798
2022-09-26T00:38:33.130Z,9.757661
2022-09-26T00:39:33.124Z,9.757927
2022-09-26T00:40:33.149Z,9.757683
2022-09-26T00:41:33.102Z,9.757495
2022-09-26T00:42:33.137Z,9.757760
2022-09-26T00:43:33.087Z,9.757705
2022-09-26T00:44:33.081Z,9.757850
2022-09-26T00:45:33.110Z,9.757935
2022-09-26T00:46:33.143Z,9.757928
2022-09-26T00:47:33.080Z,9.757931
2022-09-26T00:48:34.044Z,9.757723
2022-09-26T00:49:33.046Z,9.757803
2022-09-26T00:50:33.030Z,9.757862
2022-09-26T00:51:33.022Z,9.757717
2022-09-26T00:52:33.037Z,9.758060
2022-09-26T00:53:33.013Z,9.758039
2022-09-26T00:54:33.027Z,9.757886
2022-09-26T00:55:32.990Z,9.757949
2022-09-26T00:56:32.985Z,9.757798
2022-09-26T00:57:33.013Z,9.757876
2022-09-26T00:58:32.970Z,9.757622
2022-09-26T00:59:32.955Z,9.757933
2022-09-26T01:00:34.154Z,9.757599
2022-09-26T01:01:33.004Z,9.757459
2022-09-26T01:02:33.074Z,9.757668
2022-09-26T01:03:32.934Z,9.757531
2022-09-26T01:04:32.947Z,9.757537
2022-09-26T01:05:32.903Z,9.757025
2022-09-26T01:06:32.905Z,9.757174
2022-09-26T01:07:32.891Z,9.757447
2022-09-26T01:08:32.915Z,9.757490
2022-09-26T01:09:32.874Z,9.757426
2022-09-26T01:10:32.866Z,9.757537
2022-09-26T01:11:32.859Z,9.757609
2022-09-26T01:12:32.864Z,9.757553
2022-09-26T01:13:32.886Z,9.757522
2022-09-26T01:14:32.828Z,9.757669
2022-09-26T01:15:32.829Z,9.757933
2022-09-26T01:16:32.838Z,9.757259
2022-09-26T01:17:32.808Z,9.757295
2022-09-26T01:18:32.812Z,9.757460
2022-09-26T01:19:33.785Z,9.757478
2022-09-26T01:20:32.776Z,9.757419
2022-09-26T01:21:32.777Z,9.757469
2022-09-26T01:22:32.789Z,9.757343
2022-09-26T01:24:06.520Z,9.757238
2022-09-26T01:24:32.742Z,9.757319
2022-09-26T01:25:32.739Z,9.757452
2022-09-26T01:26:32.729Z,9.757588
2022-09-26T01:27:32.758Z,9.757513
2022-09-26T01:28:32.720Z,9.757367
2022-09-26T01:29:32.713Z,9.757480
2022-09-26T01:30:32.811Z,9.757486
2022-09-26T01:31:32.691Z,9.757560
2022-09-26T01:32:32.710Z,9.757586
2022-09-26T01:33:32.672Z,9.757578
2022-09-26T01:34:32.671Z,9.757424
2022-09-26T01:35:32.664Z,9.757419
2022-09-26T01:36:32.649Z,9.757498
2022-09-26T01:37:32.669Z,9.757578
2022-09-26T01:38:32.632Z,9.757602
2022-09-26T01:39:32.627Z,9.757512
2022-09-26T01:40:32.644Z,9.757483
2022-09-26T01:41:32.609Z,9.757534
2022-09-26T01:42:32.629Z,9.757644
2022-09-26T01:43:32.589Z,9.757492
2022-09-26T01:44:32.581Z,9.757533
2022-09-26T01:45:32.614Z,9.757496
2022-09-26T01:46:32.565Z,9.757716
2022-09-26T01:47:32.595Z,9.757556
2022-09-26T01:48:32.551Z,9.757580
2022-09-26T01:49:32.540Z,9.757515
2022-09-26T01:50:32.534Z,9.757431
2022-09-26T01:51:32.520Z,9.757612
2022-09-26T01:52:32.558Z,9.757520
2022-09-26T01:53:32.511Z,9.757439
2022-09-26T01:54:32.495Z,9.757685
2022-09-26T01:55:32.496Z,9.757346
2022-09-26T01:56:32.477Z,9.757421
2022-09-26T01:57:32.472Z,9.757514
2022-09-26T01:58:32.474Z,9.757524
2022-09-26T01:59:33.453Z,9.757474
2022-09-26T02:00:32.457Z,9.757624
2022-09-26T02:01:32.518Z,9.757564
2022-09-26T02:02:32.517Z,9.757629
2022-09-26T02:03:32.456Z,9.757557
2022-09-26T02:04:32.416Z,9.757421
2022-09-26T02:05:32.427Z,9.757451
2022-09-26T02:06:32.401Z,9.757515
2022-09-26T02:07:32.394Z,9.757536
2022-09-26T02:08:32.408Z,9.757504
2022-09-26T02:09:32.379Z,9.757478
2022-09-26T02:10:32.361Z,9.757526
2022-09-26T02:11:32.353Z,9.757540
2022-09-26T02:12:32.345Z,9.757513
2022-09-26T02:13:32.367Z,9.757492
2022-09-26T02:14:32.343Z,9.757464
2022-09-26T02:15:32.323Z,9.757566
2022-09-26T02:16:32.356Z,9.757535
2022-09-26T02:17:32.338Z,9.757429
2022-09-26T02:18:32.300Z,9.757491
2022-09-26T02:19:32.293Z,9.757469
2022-09-26T02:20:32.285Z,9.757543
2022-09-26T02:21:32.277Z,9.757633
2022-09-26T02:22:32.296Z,9.757761
2022-09-26T02:23:32.238Z,9.757761
2022-09-26T02:24:33.248Z,9.757761
2022-09-26T02:25:32.246Z,9.757761
2022-09-26T02:26:32.242Z,9.757761
2022-09-26T02:27:32.227Z,9.757761
2022-09-26T02:28:32.244Z,9.757562
2022-09-26T02:29:32.211Z,9.757653
2022-09-26T02:30:32.203Z,9.757898
2022-09-26T02:31:32.300Z,9.757733
2022-09-26T02:32:32.185Z,9.758101
2022-09-26T02:33:32.198Z,9.758297
2022-09-26T02:34:32.160Z,9.757992
2022-09-26T02:35:32.163Z,9.757597
2022-09-26T02:36:32.146Z,9.757597
2022-09-26T02:37:32.131Z,9.758376
2022-09-26T02:38:32.162Z,9.758170
2022-09-26T02:39:32.126Z,9.757948
2022-09-26T02:40:32.148Z,9.757707
2022-09-26T02:41:32.110Z,9.757998
2022-09-26T02:42:32.098Z,9.758101
2022-09-26T02:43:32.112Z,9.757915
2022-09-26T02:44:33.091Z,9.757943
2022-09-26T02:45:32.114Z,9.757995
2022-09-26T02:46:32.067Z,9.757804
2022-09-26T02:47:32.054Z,9.757594
2022-09-26T02:48:32.096Z,9.757658
2022-09-26T02:49:32.034Z,9.757745
2022-09-26T02:50:33.507Z,9.757820
2022-09-26T02:51:33.025Z,9.757724
2022-09-26T02:52:32.016Z,9.757456
2022-09-26T02:53:32.040Z,9.757326
2022-09-26T02:54:31.995Z,9.757389
2022-09-26T02:55:31.997Z,9.757479
2022-09-26T02:56:31.991Z,9.757488
2022-09-26T02:57:31.988Z,9.757380
2022-09-26T02:58:31.999Z,9.757374
2022-09-26T02:59:31.964Z,9.757455
2022-09-26T03:00:31.943Z,9.757430
2022-09-26T03:01:32.032Z,9.757442
2022-09-26T03:02:31.931Z,9.757435
2022-09-26T03:03:32.026Z,9.757437
2022-09-26T03:04:31.957Z,9.757459
2022-09-26T03:05:31.906Z,9.757544
2022-09-26T03:06:31.904Z,9.757393
2022-09-26T03:07:31.894Z,9.757400
2022-09-26T03:08:31.910Z,9.757642
2022-09-26T03:09:31.871Z,9.757750
2022-09-26T03:10:31.857Z,9.757675
2022-09-26T03:11:31.854Z,9.757436
2022-09-26T03:12:31.847Z,9.757208
2022-09-26T03:13:31.875Z,9.757385
2022-09-26T03:14:31.833Z,9.757283
2022-09-26T03:15:31.819Z,9.757534
2022-09-26T03:16:31.859Z,9.757545
2022-09-26T03:17:31.810Z,9.757595
2022-09-26T03:18:31.833Z,9.757556
2022-09-26T03:19:31.790Z,9.757623
2022-09-26T03:20:31.785Z,9.757440
2022-09-26T03:21:36.168Z,9.757516
2022-09-26T03:22:33.766Z,9.757536
2022-09-26T03:23:31.794Z,9.757514
2022-09-26T03:24:31.748Z,9.758198
2022-09-26T03:25:31.745Z,9.757907
2022-09-26T03:26:31.737Z,9.757627
2022-09-26T03:27:31.723Z,9.757623
2022-09-26T03:28:36.853Z,9.757599
2022-09-26T03:29:33.703Z,9.757346
2022-09-26T03:30:31.704Z,9.757409
2022-09-26T03:31:31.758Z,9.757642
2022-09-26T03:32:31.680Z,9.757620
2022-09-26T03:33:31.705Z,9.757592
2022-09-26T03:34:31.661Z,9.757587
2022-09-26T03:35:31.646Z,9.757544
2022-09-26T03:36:31.658Z,9.757556
2022-09-26T03:37:31.635Z,9.757497
2022-09-26T03:38:31.655Z,9.757506
2022-09-26T03:39:32.624Z,9.757628
2022-09-26T03:40:31.680Z,9.757596
2022-09-26T03:41:31.611Z,9.757600
2022-09-26T03:42:31.590Z,9.757570
2022-09-26T03:43:31.631Z,9.757501
2022-09-26T03:44:31.582Z,9.757551
2022-09-26T03:45:31.626Z,9.757610
2022-09-26T03:46:33.992Z,9.757548
2022-09-26T03:47:32.553Z,9.757517
2022-09-26T03:48:31.567Z,9.757410
2022-09-26T03:49:31.541Z,9.757648
2022-09-26T03:50:31.536Z,9.757509
2022-09-26T03:51:31.514Z,9.757543
2022-09-26T03:52:31.507Z,9.757537
2022-09-26T03:53:31.539Z,9.757449
2022-09-26T03:54:31.486Z,9.757619
2022-09-26T03:55:31.478Z,9.757737
2022-09-26T03:56:31.474Z,9.757618
2022-09-26T03:57:31.465Z,9.757640
2022-09-26T03:58:31.487Z,9.757657
2022-09-26T03:59:31.452Z,9.757534
2022-09-26T04:00:31.510Z,9.757515
2022-09-26T04:01:31.505Z,9.757503
2022-09-26T04:02:31.534Z,9.757437
2022-09-26T04:03:31.419Z,9.757508
2022-09-26T04:04:31.434Z,9.757592
2022-09-26T04:05:31.398Z,9.757635
2022-09-26T04:06:31.388Z,9.757618
2022-09-26T04:07:31.390Z,9.757550
2022-09-26T04:08:31.377Z,9.757603
2022-09-26T04:09:31.396Z,9.757541
2022-09-26T04:10:32.364Z,9.757497
2022-09-26T04:11:31.351Z,9.757559
2022-09-26T04:12:31.338Z,9.757495
2022-09-26T04:13:50.607Z,9.757575
2022-09-26T04:14:33.350Z,9.757556
2022-09-26T04:15:31.306Z,9.757574
2022-09-26T04:16:31.317Z,9.757588
2022-09-26T04:17:32.295Z,9.757504
2022-09-26T04:18:31.287Z,9.757476
2022-09-26T04:19:31.308Z,9.757387
2022-09-26T04:20:31.273Z,9.757513
2022-09-26T04:21:31.267Z,9.757480
2022-09-26T04:22:31.259Z,9.757439
2022-09-26T04:23:31.257Z,9.757566
2022-09-26T04:24:31.269Z,9.757474
2022-09-26T04:25:31.234Z,9.757401
2022-09-26T04:26:31.225Z,9.757404
2022-09-26T04:27:31.222Z,9.757502
2022-09-26T04:28:31.200Z,9.757595
2022-09-26T04:29:31.224Z,9.757786
2022-09-26T04:30:31.186Z,9.757750
2022-09-26T04:31:31.201Z,9.757696
2022-09-26T04:32:31.173Z,9.757416
2022-09-26T04:33:31.168Z,9.757261
2022-09-26T04:34:31.199Z,9.757351
2022-09-26T04:35:31.157Z,9.757490
2022-09-26T04:36:31.140Z,9.757553
2022-09-26T04:37:31.129Z,9.757517
2022-09-26T04:38:31.128Z,9.757556
2022-09-26T04:39:31.145Z,9.757565
2022-09-26T04:40:31.157Z,9.757623
2022-09-26T04:41:31.110Z,9.757444
2022-09-26T04:42:31.094Z,9.757196
2022-09-26T04:43:31.086Z,9.757451
2022-09-26T04:44:31.108Z,9.757581
2022-09-26T04:45:31.098Z,9.757513
2022-09-26T04:46:31.464Z,9.757491
2022-09-26T04:47:31.043Z,9.757575
2022-09-26T04:48:31.038Z,9.757573
2022-09-26T04:49:31.057Z,9.757685
2022-09-26T04:50:31.014Z,9.757773
2022-09-26T04:51:31.026Z,9.757936
2022-09-26T04:52:30.998Z,9.757838
2022-09-26T04:53:30.992Z,9.757806
2022-09-26T04:54:31.013Z,9.757784
2022-09-26T04:55:30.979Z,9.757591
2022-09-26T04:56:30.967Z,9.757589
2022-09-26T04:57:30.962Z,9.757555
2022-09-26T04:58:30.955Z,9.757608
2022-09-26T04:59:30.975Z,9.757674
2022-09-26T05:00:30.976Z,9.757668
2022-09-26T05:01:31.000Z,9.757633
2022-09-26T05:02:30.993Z,9.757747
2022-09-26T05:03:30.918Z,9.757792
2022-09-26T05:04:30.959Z,9.757706
2022-09-26T05:05:30.891Z,9.757688
2022-09-26T05:06:30.899Z,9.757081
2022-09-26T05:07:30.881Z,9.757022
2022-09-26T05:08:30.870Z,9.757293
2022-09-26T05:09:35.759Z,9.757753
2022-09-26T05:10:32.886Z,9.757691
2022-09-26T05:11:30.847Z,9.757710
2022-09-26T05:12:30.841Z,9.757708
2022-09-26T05:13:30.833Z,9.757755
2022-09-26T05:14:30.823Z,9.757791
2022-09-26T05:15:30.849Z,9.757543
2022-09-26T05:16:30.911Z,9.757767
2022-09-26T05:17:30.801Z,9.757722
2022-09-26T05:18:30.785Z,9.757766
2022-09-26T05:19:30.781Z,9.757710
2022-09-26T05:20:30.803Z,9.757643
2022-09-26T05:21:30.770Z,9.757672
2022-09-26T05:22:30.757Z,9.757513
2022-09-26T05:23:30.746Z,9.757704
2022-09-26T05:24:30.732Z,9.757668
2022-09-26T05:25:30.755Z,9.757451
2022-09-26T05:26:30.716Z,9.757422
2022-09-26T05:27:30.713Z,9.757304
2022-09-26T05:28:30.710Z,9.757422
2022-09-26T05:29:30.693Z,9.757639
2022-09-26T05:30:30.718Z,9.757648
2022-09-26T05:31:30.744Z,9.757832
2022-09-26T05:32:30.678Z,9.757863
2022-09-26T05:33:30.664Z,9.757442
2022-09-26T05:34:30.672Z,9.757237
2022-09-26T05:35:30.687Z,9.757453
2022-09-26T05:36:30.644Z,9.757694
2022-09-26T05:37:30.638Z,9.757822
2022-09-26T05:38:30.630Z,9.757921
2022-09-26T05:39:30.613Z,9.757773
2022-09-26T05:40:30.669Z,9.757575
2022-09-26T05:41:30.601Z,9.757580
2022-09-26T05:42:30.598Z,9.757952
2022-09-26T05:43:30.578Z,9.757661
2022-09-26T05:44:30.574Z,9.757638
2022-09-26T05:45:30.599Z,9.757497
2022-09-26T05:46:30.621Z,9.757516
2022-09-26T05:47:30.551Z,9.757523
2022-09-26T05:48:30.537Z,9.757490
2022-09-26T05:49:30.609Z,9.757697
2022-09-26T05:50:30.554Z,9.757496
2022-09-26T05:51:30.536Z,9.757505
2022-09-26T05:52:30.510Z,9.757437
2022-09-26T05:53:30.505Z,9.757410
2022-09-26T05:54:30.495Z,9.757339
2022-09-26T05:55:30.506Z,9.757666
2022-09-26T05:56:30.470Z,9.757651
2022-09-26T05:57:30.466Z,9.757587
2022-09-26T05:58:30.459Z,9.757546
2022-09-26T05:59:30.446Z,9.757511
2022-09-26T06:00:30.474Z,9.757607
2022-09-26T06:01:30.553Z,9.757679
2022-09-26T06:02:30.459Z,9.757622
2022-09-26T06:03:30.421Z,9.757673
2022-09-26T06:04:30.409Z,9.757583
2022-09-26T06:05:30.427Z,9.757824
2022-09-26T06:06:30.415Z,9.757455
2022-09-26T06:07:30.377Z,9.757507
2022-09-26T06:08:30.378Z,9.757495
2022-09-26T06:09:30.379Z,9.757502
2022-09-26T06:10:30.381Z,9.757586
2022-09-26T06:11:30.354Z,9.757511
2022-09-26T06:12:30.344Z,9.757540
2022-09-26T06:13:30.334Z,9.757462
2022-09-26T06:14:30.325Z,9.757561
2022-09-26T06:15:30.350Z,9.757677
2022-09-26T06:16:30.443Z,9.757515
2022-09-26T06:17:30.306Z,9.757504
2022-09-26T06:18:30.302Z,9.757846
2022-09-26T06:19:30.285Z,9.757597
2022-09-26T06:20:30.313Z,9.757718
2022-09-26T06:21:30.289Z,9.757612
2022-09-26T06:22:30.258Z,9.757504
2022-09-26T06:23:30.252Z,9.757376
2022-09-26T06:24:30.242Z,9.757419
2022-09-26T06:25:30.266Z,9.757459
2022-09-26T06:26:30.226Z,9.757426
2022-09-26T06:27:30.222Z,9.757460
2022-09-26T06:28:30.207Z,9.757435
2022-09-26T06:29:30.208Z,9.757445
2022-09-26T06:30:30.212Z,9.757628
2022-09-26T06:31:30.338Z,9.757739
2022-09-26T06:32:30.175Z,9.757561
2022-09-26T06:33:33.364Z,9.757838
2022-09-26T06:34:31.155Z,9.757564
2022-09-26T06:35:30.154Z,9.757387
2022-09-26T06:36:30.175Z,9.757517
2022-09-26T06:37:30.130Z,9.757751
2022-09-26T06:38:30.116Z,9.757601
2022-09-26T06:39:30.115Z,9.757606
2022-09-26T06:40:30.189Z,9.757545
2022-09-26T06:41:30.130Z,9.757546
2022-09-26T06:42:31.052Z,9.757409
2022-09-26T06:43:30.084Z,9.757434
2022-09-26T06:44:30.077Z,9.757566
2022-09-26T06:45:30.069Z,9.757415
2022-09-26T06:46:30.134Z,9.757393
2022-09-26T06:47:30.113Z,9.757458
2022-09-26T06:48:30.038Z,9.757611
2022-09-26T06:49:30.029Z,9.757639
2022-09-26T06:50:30.031Z,9.757600
2022-09-26T06:51:30.043Z,9.757584
2022-09-26T06:52:30.008Z,9.757528
2022-09-26T06:53:30.004Z,9.757523
2022-09-26T06:54:29.998Z,9.757604
2022-09-26T06:55:29.980Z,9.757556
2022-09-26T06:56:30.002Z,9.757481
2022-09-26T06:57:29.966Z,9.757484
2022-09-26T06:58:29.964Z,9.757539
2022-09-26T06:59:29.946Z,9.757588
2022-09-26T07:00:30.046Z,9.757565
2022-09-26T07:01:30.066Z,9.757571
2022-09-26T07:02:29.921Z,9.757541
2022-09-26T07:03:30.022Z,9.757526
2022-09-26T07:04:29.902Z,9.757543
2022-09-26T07:05:29.904Z,9.757349
2022-09-26T07:06:29.919Z,9.757407
2022-09-26T07:07:29.878Z,9.757496
2022-09-26T07:08:57.397Z,9.757371
2022-09-26T07:09:31.854Z,9.757450
2022-09-26T07:10:29.857Z,9.757444
2022-09-26T07:11:50.373Z,9.757447
2022-09-26T07:12:31.835Z,9.757451
2022-09-26T07:13:29.831Z,9.757450
2022-09-26T07:14:29.815Z,9.757444
2022-09-26T07:15:29.808Z,9.757463
2022-09-26T07:16:29.894Z,9.757533
2022-09-26T07:17:29.787Z,9.757419
2022-09-26T07:18:29.785Z,9.757440
2022-09-26T07:19:29.767Z,9.757504
2022-09-26T07:20:29.766Z,9.757472
2022-09-26T07:21:29.789Z,9.757483
2022-09-26T07:22:29.753Z,9.757555
2022-09-26T07:23:29.739Z,9.757426
2022-09-26T07:24:29.728Z,9.757437
2022-09-26T07:25:29.720Z,9.757452
2022-09-26T07:26:29.740Z,9.757504
2022-09-26T07:27:29.702Z,9.757487
2022-09-26T07:28:29.690Z,9.757443
2022-09-26T07:29:29.683Z,9.757496
2022-09-26T07:30:29.683Z,9.757462
2022-09-26T07:31:29.807Z,9.757446
2022-09-26T07:32:29.670Z,9.757436
2022-09-26T07:33:29.660Z,9.757448
2022-09-26T07:34:29.647Z,9.757394
2022-09-26T07:35:29.644Z,9.757384
2022-09-26T07:36:29.667Z,9.757371
2022-09-26T07:37:29.621Z,9.757437
2022-09-26T07:38:29.612Z,9.757495
2022-09-26T07:39:29.607Z,9.757488
2022-09-26T07:40:29.623Z,9.757591
2022-09-26T07:41:29.592Z,9.757481
2022-09-26T07:42:29.607Z,9.757471
2022-09-26T07:44:00.186Z,9.757457
2022-09-26T07:45:31.725Z,9.757490
2022-09-26T07:46:29.650Z,9.757449
2022-09-26T07:47:29.539Z,9.757510
2022-09-26T07:48:29.531Z,9.757590
2022-09-26T07:49:29.523Z,9.757506
2022-09-26T07:50:29.509Z,9.757486
2022-09-26T07:51:29.527Z,9.757517
2022-09-26T07:52:29.488Z,9.757395
2022-09-26T07:53:29.490Z,9.757463
2022-09-26T07:54:29.478Z,9.757494
2022-09-26T07:55:29.508Z,9.757503
2022-09-26T07:56:29.489Z,9.757655
2022-09-26T07:57:29.450Z,9.757500
2022-09-26T07:58:29.440Z,9.757508
2022-09-26T07:59:29.433Z,9.757511
2022-09-26T08:00:29.421Z,9.757168
2022-09-26T08:01:29.521Z,9.757368
2022-09-26T08:02:29.470Z,9.757429
2022-09-26T08:03:29.397Z,9.757513
2022-09-26T08:04:29.391Z,9.757498
2022-09-26T08:05:29.373Z,9.757516
2022-09-26T08:06:29.402Z,9.757567
2022-09-26T08:07:29.367Z,9.757599
2022-09-26T08:08:29.360Z,9.757586
2022-09-26T08:09:29.388Z,9.757582
2022-09-26T08:10:29.346Z,9.757388
2022-09-26T08:11:29.364Z,9.757289
2022-09-26T08:12:29.328Z,9.757420
2022-09-26T08:13:29.316Z,9.757579
2022-09-26T08:14:29.306Z,9.757470
2022-09-26T08:15:29.294Z,9.757503
2022-09-26T08:16:29.403Z,9.757668
2022-09-26T08:17:29.288Z,9.757653
2022-09-26T08:18:29.275Z,9.757553
2022-09-26T08:19:29.288Z,9.757541
2022-09-26T08:20:32.228Z,9.757404
2022-09-26T08:21:30.276Z,9.757408
2022-09-26T08:22:29.243Z,9.757503
2022-09-26T08:23:29.240Z,9.757587
2022-09-26T08:24:29.232Z,9.757582
2022-09-26T08:25:29.221Z,9.757558
2022-09-26T08:26:29.240Z,9.757674
2022-09-26T08:27:29.212Z,9.757504
2022-09-26T08:28:29.183Z,9.757486
2022-09-26T08:29:30.191Z,9.757539
2022-09-26T08:30:29.179Z,9.757527
2022-09-26T08:31:29.225Z,9.757634
2022-09-26T08:32:29.191Z,9.757540
2022-09-26T08:33:29.154Z,9.757488
2022-09-26T08:34:29.151Z,9.757519
2022-09-26T08:35:29.140Z,9.757573
2022-09-26T08:36:29.128Z,9.757534
2022-09-26T08:37:29.143Z,9.757566
2022-09-26T08:38:30.123Z,9.757636
2022-09-26T08:39:33.305Z,9.757485
2022-09-26T08:40:30.171Z,9.757510
2022-09-26T08:41:29.126Z,9.757494
2022-09-26T08:42:29.079Z,9.757460
2022-09-26T08:43:29.106Z,9.757480
2022-09-26T08:44:29.067Z,9.757553
2022-09-26T08:45:29.070Z,9.757512
2022-09-26T08:46:29.129Z,9.757510
2022-09-26T08:47:29.046Z,9.757470
2022-09-26T08:48:29.031Z,9.757400
2022-09-26T08:49:29.036Z,9.757532
2022-09-26T08:50:29.011Z,9.757590
2022-09-26T08:51:29.491Z,9.757531
2022-09-26T08:52:30.002Z,9.757502
2022-09-26T08:53:28.992Z,9.757501
2022-09-26T08:54:28.983Z,9.757380
2022-09-26T08:55:28.977Z,9.757368
2022-09-26T08:56:29.007Z,9.757466
2022-09-26T08:57:28.955Z,9.757453
2022-09-26T08:58:29.372Z,9.757517
2022-09-26T08:59:29.945Z,9.757515
2022-09-26T09:00:28.936Z,9.757502
2022-09-26T09:01:28.977Z,9.757597
2022-09-26T09:02:29.087Z,9.757523
2022-09-26T09:03:28.903Z,9.757493
2022-09-26T09:04:28.903Z,9.757522
2022-09-26T09:05:28.890Z,9.757482
2022-09-26T09:06:28.885Z,9.757555
2022-09-26T09:07:28.893Z,9.757537
2022-09-26T09:08:28.881Z,9.757545
2022-09-26T09:09:28.859Z,9.757590
2022-09-26T09:10:28.853Z,9.757562
2022-09-26T09:11:28.844Z,9.757585
2022-09-26T09:12:32.142Z,9.757609
2022-09-26T09:13:29.826Z,9.757847
2022-09-26T09:14:28.812Z,9.757796
2022-09-26T09:15:28.812Z,9.757713
2022-09-26T09:16:28.847Z,9.757589
2022-09-26T09:17:28.817Z,9.757601
2022-09-26T09:18:28.773Z,9.757569
2022-09-26T09:19:28.780Z,9.757391
2022-09-26T09:20:28.758Z,9.757545
2022-09-26T09:21:28.752Z,9.757563
2022-09-26T09:22:28.782Z,9.757538
2022-09-26T09:23:28.745Z,9.757573
2022-09-26T09:24:28.748Z,9.757485
2022-09-26T09:25:28.724Z,9.757710
2022-09-26T09:28:30.698Z,9.757862
2022-09-26T09:29:28.722Z,9.757922
2022-09-26T09:30:28.693Z,9.757706
2022-09-26T09:31:28.744Z,9.757806
2022-09-26T09:32:28.691Z,9.757484
2022-09-26T09:33:28.652Z,9.757458
2022-09-26T09:34:28.644Z,9.757366
2022-09-26T09:35:28.634Z,9.757627
2022-09-26T09:36:28.625Z,9.757659
2022-09-26T09:37:28.644Z,9.757449
2022-09-26T09:38:28.615Z,9.757507
2022-09-26T09:39:28.596Z,9.757600
2022-09-26T09:40:28.661Z,9.757788
2022-09-26T09:41:28.592Z,9.757771
2022-09-26T09:42:28.606Z,9.757558
2022-09-26T09:43:28.566Z,9.757420
2022-09-26T09:44:28.558Z,9.757770
2022-09-26T09:45:28.551Z,9.757413
2022-09-26T09:46:28.703Z,9.757140
2022-09-26T09:47:28.527Z,9.757257
2022-09-26T09:48:28.528Z,9.757496
2022-09-26T09:49:28.517Z,9.757414
2022-09-26T09:50:28.512Z,9.757408
2022-09-26T09:51:28.528Z,9.757215
2022-09-26T09:52:28.533Z,9.757464
2022-09-26T09:53:28.480Z,9.757567
2022-09-26T09:54:28.471Z,9.757382
2022-09-26T09:55:28.469Z,9.757360
2022-09-26T09:56:28.485Z,9.757427
2022-09-26T09:57:28.452Z,9.757456
2022-09-26T09:58:28.441Z,9.757269
2022-09-26T09:59:28.430Z,9.757345
2022-09-26T10:00:28.423Z,9.757439
2022-09-26T10:01:28.442Z,9.757270
2022-09-26T10:02:28.464Z,9.757382
2022-09-26T10:03:28.390Z,9.757480
2022-09-26T10:04:28.391Z,9.757518
2022-09-26T10:05:28.388Z,9.757486
2022-09-26T10:06:45.747Z,9.757352
2022-09-26T10:07:29.358Z,9.757234
2022-09-26T10:08:28.354Z,9.757526
2022-09-26T10:09:38.891Z,9.757463
2022-09-26T10:10:29.332Z,9.757240
2022-09-26T10:11:28.352Z,9.757306
2022-09-26T10:12:28.323Z,9.757272
2022-09-26T10:13:28.313Z,9.757482
2022-09-26T10:14:28.312Z,9.757263
2022-09-26T10:15:28.298Z,9.757405
2022-09-26T10:16:28.440Z,9.757480
2022-09-26T10:17:28.281Z,9.757426
2022-09-26T10:18:28.278Z,9.757344
2022-09-26T10:19:28.262Z,9.757417
2022-09-26T10:20:28.257Z,9.757513
2022-09-26T10:21:28.277Z,9.757482
2022-09-26T10:22:28.242Z,9.757492
2022-09-26T10:23:28.234Z,9.757559
2022-09-26T10:24:28.232Z,9.757513
2022-09-26T10:25:29.218Z,9.757508
2022-09-26T10:26:31.450Z,9.757500
2022-09-26T10:27:29.197Z,9.757453
2022-09-26T10:28:28.187Z,9.757497
2022-09-26T10:29:28.181Z,9.757510
2022-09-26T10:30:28.179Z,9.757580
2022-09-26T10:31:43.502Z,9.757465
2022-09-26T10:32:28.152Z,9.757297
2022-09-26T10:33:28.150Z,9.757438
2022-09-26T10:34:28.225Z,9.757489
2022-09-26T10:35:28.129Z,9.757517
2022-09-26T10:36:28.153Z,9.757403
2022-09-26T10:37:28.114Z,9.757454
2022-09-26T10:38:28.100Z,9.757512
2022-09-26T10:39:28.097Z,9.757395
2022-09-26T10:40:28.142Z,9.757578
2022-09-26T10:41:28.105Z,9.757388
2022-09-26T10:42:32.304Z,9.757512
2022-09-26T10:43:29.062Z,9.757484
2022-09-26T10:44:28.058Z,9.757437
2022-09-26T10:45:28.052Z,9.757432
2022-09-26T10:46:28.108Z,9.757501
2022-09-26T10:47:28.033Z,9.757505
2022-09-26T10:48:28.016Z,9.757731
2022-09-26T10:49:29.032Z,9.757485
2022-09-26T10:50:28.006Z,9.757536
2022-09-26T10:51:28.024Z,9.757587
2022-09-26T10:52:27.995Z,9.757609
2022-09-26T10:53:27.987Z,9.757663
2022-09-26T10:54:27.966Z,9.757560
2022-09-26T10:55:27.965Z,9.757537
2022-09-26T10:56:27.961Z,9.757545
2022-09-26T10:57:27.974Z,9.757579
2022-09-26T10:58:27.938Z,9.757504
2022-09-26T10:59:28.805Z,9.757448
2022-09-26T11:00:27.933Z,9.757566
2022-09-26T11:01:28.032Z,9.757464
2022-09-26T11:02:27.908Z,9.757474
2022-09-26T11:03:27.957Z,9.757482
2022-09-26T11:04:27.891Z,9.757445
2022-09-26T11:05:27.894Z,9.757337
2022-09-26T11:06:27.903Z,9.757467
2022-09-26T11:07:27.872Z,9.757514
2022-09-26T11:08:27.859Z,9.757393
2022-09-26T11:09:27.849Z,9.757339
2022-09-26T11:10:27.845Z,9.757334
2022-09-26T11:11:27.866Z,9.757545
2022-09-26T11:12:27.841Z,9.757416
2022-09-26T11:13:27.815Z,9.757409
2022-09-26T11:14:28.551Z,9.757480
2022-09-26T11:15:28.885Z,9.757522
2022-09-26T11:16:27.849Z,9.757555
2022-09-26T11:17:27.788Z,9.757498
2022-09-26T11:18:27.777Z,9.757509
2022-09-26T11:19:27.774Z,9.757598
2022-09-26T11:20:27.762Z,9.757480
2022-09-26T11:21:29.691Z,9.757402
2022-09-26T11:22:28.742Z,9.757507
2022-09-26T11:23:27.733Z,9.757518
2022-09-26T11:24:27.732Z,9.757483
2022-09-26T11:25:27.718Z,9.757468
2022-09-26T11:26:27.742Z,9.757541
2022-09-26T11:27:27.700Z,9.757506
2022-09-26T11:28:27.707Z,9.757487
2022-09-26T11:29:27.703Z,9.757493
2022-09-26T11:30:27.681Z,9.757556
2022-09-26T11:31:27.818Z,9.757532
2022-09-26T11:32:27.696Z,9.757357
2022-09-26T11:33:27.657Z,9.757364
2022-09-26T11:34:27.652Z,9.757369
2022-09-26T11:35:27.640Z,9.757391
2022-09-26T11:36:27.638Z,9.757578
2022-09-26T11:37:27.653Z,9.757521
2022-09-26T11:38:27.621Z,9.757424
2022-09-26T11:39:27.612Z,9.757444
2022-09-26T11:40:27.690Z,9.757483
2022-09-26T11:41:27.595Z,9.757454
2022-09-26T11:42:27.616Z,9.757445
2022-09-26T11:43:27.588Z,9.757465
2022-09-26T11:44:27.565Z,9.757521
2022-09-26T11:45:27.562Z,9.757479
2022-09-26T11:46:27.643Z,9.757471
2022-09-26T11:47:27.569Z,9.757485